createdAt,value
2018-08-03T00:00:43.916Z,0
2018-08-03T00:01:53.983Z,0
2018-08-03T00:03:04.069Z,0
2018-08-03T00:04:14.206Z,0
2018-08-03T00:05:24.020Z,0
2018-08-03T00:06:34.108Z,0
2018-08-03T00:07:43.919Z,0
2018-08-03T00:08:53.988Z,0
2018-08-03T00:10:04.056Z,0
2018-08-03T00:11:14.118Z,0
2018-08-03T00:12:23.934Z,0
2018-08-03T00:13:33.997Z,0
2018-08-03T00:14:44.070Z,0
2018-08-03T00:15:53.685Z,0
2018-08-03T00:17:03.791Z,0
2018-08-03T00:18:13.632Z,0
2018-08-03T00:19:23.701Z,0
2018-08-03T00:20:33.803Z,0
2018-08-03T00:21:43.865Z,0
2018-08-03T00:22:53.925Z,0
2018-08-03T00:24:03.998Z,0
2018-08-03T00:25:14.092Z,0
2018-08-03T00:26:23.899Z,0
2018-08-03T00:27:33.723Z,0
2018-08-03T00:28:43.278Z,0
2018-08-03T00:29:53.352Z,0
2018-08-03T00:31:03.412Z,0
2018-08-03T00:32:13.228Z,0
2018-08-03T00:33:23.316Z,0
2018-08-03T00:34:33.457Z,0
2018-08-03T00:35:43.538Z,0
2018-08-03T00:36:53.344Z,0
2018-08-03T00:38:03.414Z,0
2018-08-03T00:39:13.489Z,0
2018-08-03T00:40:23.560Z,0
2018-08-03T00:41:33.671Z,0
2018-08-03T00:42:43.770Z,0
2018-08-03T00:43:53.572Z,0
2018-08-03T00:45:03.651Z,0
2018-08-03T00:46:13.744Z,0
2018-08-03T00:47:23.815Z,0
2018-08-03T00:48:33.623Z,0
2018-08-03T00:49:43.716Z,0
2018-08-03T00:50:53.780Z,0
2018-08-03T00:52:03.887Z,0
2018-08-03T00:53:13.950Z,0
2018-08-03T00:54:24.009Z,0
2018-08-03T00:55:33.817Z,0
2018-08-03T00:56:43.891Z,0
2018-08-03T00:57:53.975Z,0
2018-08-03T00:59:04.054Z,0
2018-08-03T01:00:14.120Z,0
2018-08-03T01:01:24.191Z,0
2018-08-03T01:02:34.007Z,0
2018-08-03T01:03:43.834Z,0
2018-08-03T01:04:53.907Z,0
2018-08-03T01:06:03.977Z,0
2018-08-03T01:07:14.051Z,0
2018-08-03T01:08:24.136Z,0
2018-08-03T01:09:33.699Z,0
2018-08-03T01:10:43.516Z,0
2018-08-03T01:11:53.602Z,0
2018-08-03T01:13:03.905Z,0
2018-08-03T01:14:14.008Z,0
2018-08-03T01:15:23.814Z,0
2018-08-03T01:16:33.895Z,0
2018-08-03T01:17:43.705Z,0
2018-08-03T01:18:53.767Z,0
2018-08-03T01:20:03.586Z,0
2018-08-03T01:21:13.385Z,0
2018-08-03T01:22:23.457Z,0
2018-08-03T01:23:33.271Z,0
2018-08-03T01:24:43.376Z,0
2018-08-03T01:25:53.458Z,0
2018-08-03T01:27:03.559Z,0
2018-08-03T01:28:13.637Z,0
2018-08-03T01:29:23.468Z,0
2018-08-03T01:30:33.567Z,0
2018-08-03T01:31:43.398Z,0
2018-08-03T01:32:53.465Z,0
2018-08-03T01:34:03.554Z,0
2018-08-03T01:35:13.375Z,0
2018-08-03T01:36:23.463Z,0
2018-08-03T01:37:33.256Z,0
2018-08-03T01:38:43.347Z,0
2018-08-03T01:39:53.435Z,0
2018-08-03T01:41:03.531Z,0
2018-08-03T01:42:13.612Z,0
2018-08-03T01:43:23.683Z,0
2018-08-03T01:44:33.759Z,0
2018-08-03T01:45:43.836Z,0
2018-08-03T01:46:53.671Z,0
2018-08-03T01:48:03.507Z,0
2018-08-03T01:49:13.316Z,0
2018-08-03T01:50:23.392Z,0
2018-08-03T01:51:33.455Z,0
2018-08-03T01:52:43.276Z,0
2018-08-03T01:53:53.085Z,0
2018-08-03T01:55:03.146Z,0
2018-08-03T01:56:12.976Z,0
2018-08-03T01:57:23.029Z,0
2018-08-03T01:58:33.099Z,0
2018-08-03T01:59:43.172Z,0
2018-08-03T02:00:52.985Z,0
2018-08-03T02:02:02.785Z,0
2018-08-03T02:03:12.753Z,0
2018-08-03T02:04:22.845Z,0
2018-08-03T02:05:32.926Z,0
2018-08-03T02:06:42.543Z,0
2018-08-03T02:07:52.360Z,0
2018-08-03T02:09:02.442Z,0
2018-08-03T02:10:12.517Z,0
2018-08-03T02:11:22.597Z,0
2018-08-03T02:12:32.743Z,0
2018-08-03T02:13:42.823Z,0
2018-08-03T02:14:52.897Z,0
2018-08-03T02:16:02.964Z,0
2018-08-03T02:17:13.062Z,0
2018-08-03T02:18:22.877Z,0
2018-08-03T02:19:32.939Z,0
2018-08-03T02:20:43.010Z,0
2018-08-03T02:21:52.820Z,0
2018-08-03T02:23:02.607Z,0
2018-08-03T02:24:12.425Z,0
2018-08-03T02:25:22.236Z,0
2018-08-03T02:26:32.318Z,0
2018-08-03T02:27:42.122Z,0
2018-08-03T02:28:52.201Z,0
2018-08-03T02:30:02.008Z,0
2018-08-03T02:31:12.091Z,0
2018-08-03T02:32:22.166Z,0
2018-08-03T02:33:32.239Z,0
2018-08-03T02:34:42.067Z,0
2018-08-03T02:35:52.161Z,0
2018-08-03T02:37:02.280Z,0
2018-08-03T02:38:12.106Z,0
2018-08-03T02:39:22.222Z,0
2018-08-03T02:40:32.292Z,0
2018-08-03T02:41:42.377Z,0
2018-08-03T02:42:52.480Z,0
2018-08-03T02:44:02.577Z,0
2018-08-03T02:45:12.679Z,0
2018-08-03T02:46:22.779Z,0
2018-08-03T02:47:32.589Z,0
2018-08-03T02:48:42.649Z,0
2018-08-03T02:49:52.455Z,0
2018-08-03T02:51:02.541Z,0
2018-08-03T02:52:12.369Z,0
2018-08-03T02:53:22.452Z,0
2018-08-03T02:54:32.578Z,0
2018-08-03T02:55:42.630Z,0
2018-08-03T02:56:52.687Z,0
2018-08-03T02:58:02.775Z,0
2018-08-03T02:59:12.840Z,0
2018-08-03T03:00:22.910Z,0
2018-08-03T03:01:33.038Z,0
2018-08-03T03:02:42.856Z,0
2018-08-03T03:35:07.890Z,5
2018-08-03T03:36:17.964Z,5
2018-08-03T03:37:28.030Z,5
2018-08-03T03:38:38.094Z,5
2018-08-03T03:39:48.181Z,5
2018-08-03T03:40:58.023Z,10
2018-08-03T03:42:08.157Z,10
2018-08-03T03:43:17.977Z,10
2018-08-03T03:44:27.801Z,10
2018-08-03T03:45:38.129Z,10
2018-08-03T03:46:48.283Z,10
2018-08-03T03:47:58.105Z,10
2018-08-03T03:49:08.169Z,15
2018-08-03T03:50:18.235Z,15
2018-08-03T03:51:28.334Z,15
2018-08-03T03:52:38.408Z,20
2018-08-03T03:53:48.477Z,20
2018-08-03T03:54:58.542Z,20
2018-08-03T03:56:08.356Z,25
2018-08-03T03:57:18.451Z,25
2018-08-03T03:58:28.529Z,25
2018-08-03T03:59:38.351Z,25
2018-08-03T04:00:48.161Z,25
2018-08-03T04:01:58.228Z,30
2018-08-03T04:03:08.315Z,30
2018-08-03T04:04:18.382Z,30
2018-08-03T04:05:28.460Z,30
2018-08-03T04:06:38.540Z,30
2018-08-03T04:07:48.616Z,30
2018-08-03T04:08:58.425Z,35
2018-08-03T04:10:08.301Z,35
2018-08-03T04:11:17.842Z,35
2018-08-03T04:12:28.251Z,35
2018-08-03T04:13:40.408Z,35
2018-08-03T04:14:52.290Z,40
2018-08-03T04:16:02.323Z,40
2018-08-03T04:17:12.420Z,45
2018-08-03T04:18:22.246Z,45
2018-08-03T04:19:32.322Z,50
2018-08-03T04:20:42.424Z,50
2018-08-03T04:21:52.497Z,55
2018-08-03T04:23:02.580Z,60
2018-08-03T04:24:12.653Z,60
2018-08-03T04:25:22.737Z,60
2018-08-03T04:26:32.559Z,60
2018-08-03T04:27:42.641Z,65
2018-08-03T04:28:52.467Z,105
2018-08-03T04:30:02.554Z,130
2018-08-03T04:31:12.352Z,140
2018-08-03T04:32:22.159Z,160
2018-08-03T04:33:32.251Z,155
2018-08-03T04:34:42.321Z,135
2018-08-03T04:35:52.408Z,145
2018-08-03T04:37:02.495Z,150
2018-08-03T04:38:12.676Z,120
2018-08-03T04:39:22.768Z,95
2018-08-03T04:40:32.899Z,80
2018-08-03T04:41:42.977Z,70
2018-08-03T04:42:53.058Z,70
2018-08-03T04:44:03.135Z,75
2018-08-03T04:45:12.687Z,80
2018-08-03T04:46:21.998Z,80
2018-08-03T04:47:31.826Z,80
2018-08-03T04:48:42.323Z,85
2018-08-03T04:49:52.418Z,90
2018-08-03T04:51:02.481Z,95
2018-08-03T04:52:12.562Z,120
2018-08-03T04:53:22.384Z,145
2018-08-03T04:54:32.192Z,150
2018-08-03T04:55:42.270Z,130
2018-08-03T04:56:52.333Z,130
2018-08-03T04:58:02.421Z,130
2018-08-03T04:59:12.484Z,110
2018-08-03T05:00:22.586Z,110
2018-08-03T05:01:32.400Z,115
2018-08-03T05:02:41.961Z,115
2018-08-03T05:03:51.775Z,115
2018-08-03T05:05:01.764Z,125
2018-08-03T05:06:11.569Z,150
2018-08-03T05:07:21.649Z,185
2018-08-03T05:08:31.475Z,185
2018-08-03T05:09:41.282Z,165
2018-08-03T05:10:51.368Z,160
2018-08-03T05:12:01.449Z,190
2018-08-03T05:13:11.517Z,265
2018-08-03T05:14:21.604Z,305
2018-08-03T05:15:31.943Z,310
2018-08-03T05:16:42.053Z,285
2018-08-03T05:17:52.150Z,280
2018-08-03T05:19:02.232Z,275
2018-08-03T05:20:12.313Z,300
2018-08-03T05:21:22.397Z,320
2018-08-03T05:22:32.197Z,330
2018-08-03T05:23:42.276Z,325
2018-08-03T05:24:52.331Z,305
2018-08-03T05:26:02.412Z,320
2018-08-03T05:27:12.487Z,315
2018-08-03T05:28:22.313Z,310
2018-08-03T05:29:32.388Z,270
2018-08-03T05:30:42.472Z,230
2018-08-03T05:31:52.565Z,240
2018-08-03T05:33:02.633Z,275
2018-08-03T05:34:12.447Z,290
2018-08-03T05:35:22.670Z,310
2018-08-03T05:36:33.134Z,330
2018-08-03T05:37:43.240Z,320
2018-08-03T05:38:53.335Z,330
2018-08-03T05:40:03.418Z,235
2018-08-03T05:41:13.518Z,195
2018-08-03T05:42:23.675Z,215
2018-08-03T05:43:33.779Z,255
2018-08-03T05:44:43.880Z,250
2018-08-03T05:45:53.948Z,250
2018-08-03T05:47:04.052Z,285
2018-08-03T05:48:14.139Z,315
2018-08-03T05:49:24.234Z,335
2018-08-03T05:50:34.068Z,350
2018-08-03T05:51:44.135Z,350
2018-08-03T05:52:53.953Z,345
2018-08-03T05:54:03.767Z,335
2018-08-03T05:55:13.947Z,330
2018-08-03T05:56:24.029Z,340
2018-08-03T05:57:34.102Z,340
2018-08-03T05:58:43.920Z,335
2018-08-03T05:59:54.005Z,315
2018-08-03T06:01:03.852Z,305
2018-08-03T06:02:13.917Z,280
2018-08-03T06:03:24.012Z,285
2018-08-03T06:04:34.120Z,280
2018-08-03T06:05:44.188Z,270
2018-08-03T06:06:54.278Z,245
2018-08-03T06:08:04.440Z,220
2018-08-03T06:09:14.534Z,210
2018-08-03T06:10:24.350Z,210
2018-08-03T06:11:33.924Z,210
2018-08-03T06:12:43.986Z,215
2018-08-03T06:13:54.058Z,220
2018-08-03T06:15:04.246Z,220
2018-08-03T06:16:14.335Z,220
2018-08-03T06:17:24.150Z,225
2018-08-03T06:18:34.231Z,225
2018-08-03T06:19:44.313Z,235
2018-08-03T06:20:54.258Z,250
2018-08-03T06:22:04.337Z,245
2018-08-03T06:23:14.418Z,240
2018-08-03T06:24:24.551Z,230
2018-08-03T06:25:34.648Z,235
2018-08-03T06:26:44.711Z,235
2018-08-03T06:27:54.548Z,225
2018-08-03T06:29:04.389Z,220
2018-08-03T06:30:14.214Z,210
2018-08-03T06:31:24.314Z,200
2018-08-03T06:32:34.396Z,195
2018-08-03T06:33:44.222Z,195
2018-08-03T06:34:54.043Z,200
2018-08-03T06:36:04.125Z,195
2018-08-03T06:37:14.226Z,190
2018-08-03T06:38:24.283Z,195
2018-08-03T06:39:34.375Z,195
2018-08-03T06:40:44.457Z,195
2018-08-03T06:41:54.683Z,195
2018-08-03T06:43:04.514Z,205
2018-08-03T06:44:14.600Z,210
2018-08-03T06:45:24.423Z,210
2018-08-03T06:46:34.507Z,215
2018-08-03T06:47:44.624Z,210
2018-08-03T06:48:54.760Z,210
2018-08-03T06:50:04.865Z,210
2018-08-03T06:51:14.671Z,210
2018-08-03T06:52:24.504Z,210
2018-08-03T06:53:34.643Z,205
2018-08-03T06:54:44.736Z,205
2018-08-03T06:55:54.561Z,200
2018-08-03T06:57:04.398Z,205
2018-08-03T06:58:14.475Z,210
2018-08-03T06:59:24.586Z,210
2018-08-03T07:00:34.741Z,205
2018-08-03T07:01:44.859Z,205
2018-08-03T07:02:55.151Z,200
2018-08-03T07:04:05.252Z,200
2018-08-03T07:05:15.137Z,195
2018-08-03T07:06:25.210Z,190
2018-08-03T07:07:35.378Z,190
2018-08-03T07:08:45.561Z,190
2018-08-03T07:09:55.659Z,190
2018-08-03T07:11:05.735Z,190
2018-08-03T07:12:15.573Z,190
2018-08-03T07:13:25.651Z,190
2018-08-03T07:14:36.022Z,190
2018-08-03T07:15:46.171Z,185
2018-08-03T07:16:56.296Z,185
2018-08-03T07:18:06.120Z,180
2018-08-03T07:19:16.211Z,180
2018-08-03T07:20:26.289Z,175
2018-08-03T07:21:36.073Z,180
2018-08-03T07:22:45.910Z,175
2018-08-03T07:23:56.039Z,170
2018-08-03T07:25:06.125Z,170
2018-08-03T07:26:16.190Z,170
2018-08-03T07:27:26.296Z,170
2018-08-03T07:28:36.419Z,170
2018-08-03T07:29:46.501Z,170
2018-08-03T07:30:56.589Z,170
2018-08-03T07:32:06.407Z,165
2018-08-03T07:33:16.514Z,165
2018-08-03T07:34:26.668Z,165
2018-08-03T07:35:36.466Z,165
2018-08-03T07:36:46.291Z,165
2018-08-03T07:37:56.111Z,165
2018-08-03T07:39:05.938Z,165
2018-08-03T07:40:16.025Z,160
2018-08-03T07:41:25.821Z,160
2018-08-03T07:42:35.910Z,160
2018-08-03T07:43:45.887Z,165
2018-08-03T07:44:55.843Z,165
2018-08-03T07:46:05.941Z,165
2018-08-03T07:47:16.019Z,160
2018-08-03T07:48:26.089Z,160
2018-08-03T07:49:35.910Z,160
2018-08-03T07:50:45.974Z,160
2018-08-03T07:51:55.800Z,160
2018-08-03T07:53:05.888Z,160
2018-08-03T07:54:15.700Z,160
2018-08-03T07:55:25.777Z,160
2018-08-03T07:56:35.859Z,160
2018-08-03T07:57:45.945Z,165
2018-08-03T07:58:56.009Z,170
2018-08-03T08:00:06.178Z,170
2018-08-03T08:01:16.289Z,175
2018-08-03T08:02:26.420Z,170
2018-08-03T08:03:36.513Z,170
2018-08-03T08:04:46.071Z,170
2018-08-03T08:05:56.155Z,170
2018-08-03T08:07:06.260Z,175
2018-08-03T08:08:16.396Z,175
2018-08-03T08:09:26.547Z,180
2018-08-03T08:10:36.630Z,180
2018-08-03T08:11:46.458Z,185
2018-08-03T08:12:55.997Z,185
2018-08-03T08:14:05.837Z,185
2018-08-03T08:15:16.281Z,185
2018-08-03T08:16:26.119Z,190
2018-08-03T08:17:36.203Z,190
2018-08-03T08:18:46.295Z,195
2018-08-03T08:19:56.116Z,195
2018-08-03T08:21:05.758Z,195
2018-08-03T08:22:15.897Z,190
2018-08-03T08:23:25.721Z,195
2018-08-03T08:24:35.796Z,195
2018-08-03T08:25:45.633Z,195
2018-08-03T08:26:55.719Z,195
2018-08-03T08:28:05.800Z,195
2018-08-03T08:29:15.888Z,195
2018-08-03T08:30:25.723Z,195
2018-08-03T08:31:35.742Z,195
2018-08-03T08:32:45.875Z,195
2018-08-03T08:33:55.965Z,195
2018-08-03T08:35:06.068Z,200
2018-08-03T08:36:16.160Z,200
2018-08-03T08:37:26.256Z,200
2018-08-03T08:38:36.398Z,195
2018-08-03T08:39:45.951Z,190
2018-08-03T08:40:56.038Z,195
2018-08-03T08:42:06.117Z,200
2018-08-03T08:43:16.230Z,200
2018-08-03T08:44:26.292Z,200
2018-08-03T08:45:36.383Z,200
2018-08-03T08:46:46.478Z,200
2018-08-03T08:47:56.555Z,200
2018-08-03T08:49:06.776Z,200
2018-08-03T08:50:16.923Z,200
2018-08-03T08:51:26.997Z,205
2018-08-03T08:52:37.084Z,205
2018-08-03T08:53:47.165Z,205
2018-08-03T08:54:57.745Z,205
2018-08-03T08:56:07.823Z,205
2018-08-03T08:57:17.625Z,205
2018-08-03T08:58:27.730Z,205
2018-08-03T08:59:38.075Z,205
2018-08-03T09:00:48.392Z,205
2018-08-03T09:01:58.474Z,205
2018-08-03T09:03:07.794Z,205
2018-08-03T09:04:17.879Z,205
2018-08-03T09:05:27.972Z,205
2018-08-03T09:06:38.054Z,210
2018-08-03T09:07:48.673Z,210
2018-08-03T09:08:58.879Z,210
2018-08-03T09:10:08.711Z,210
2018-08-03T09:11:18.800Z,210
2018-08-03T09:12:28.896Z,210
2018-08-03T09:13:39.004Z,210
2018-08-03T09:14:49.109Z,210
2018-08-03T09:15:59.190Z,210
2018-08-03T09:17:09.291Z,210
2018-08-03T09:18:19.454Z,210
2018-08-03T09:19:29.538Z,210
2018-08-03T09:20:39.360Z,210
2018-08-03T09:21:49.192Z,210
2018-08-03T09:22:59.268Z,210
2018-08-03T09:24:09.091Z,210
2018-08-03T09:25:19.177Z,210
2018-08-03T09:26:29.271Z,210
2018-08-03T09:27:39.095Z,210
2018-08-03T09:28:49.193Z,210
2018-08-03T09:29:59.016Z,210
2018-08-03T09:31:09.507Z,210
2018-08-03T09:32:19.596Z,210
2018-08-03T09:33:29.684Z,215
2018-08-03T09:34:39.279Z,215
2018-08-03T09:35:49.122Z,215
2018-08-03T09:36:59.218Z,210
2018-08-03T09:38:09.366Z,210
2018-08-03T09:39:19.451Z,210
2018-08-03T09:40:29.523Z,215
2018-08-03T09:41:39.616Z,215
2018-08-03T09:42:49.780Z,215
2018-08-03T09:43:59.900Z,215
2018-08-03T09:45:10.032Z,215
2018-08-03T09:46:20.350Z,215
2018-08-03T09:47:30.175Z,220
2018-08-03T09:48:40.262Z,220
2018-08-03T09:49:50.358Z,220
2018-08-03T09:51:00.431Z,220
2018-08-03T09:52:10.268Z,225
2018-08-03T09:53:20.356Z,220
2018-08-03T09:54:30.687Z,220
2018-08-03T09:55:40.789Z,220
2018-08-03T09:56:50.885Z,220
2018-08-03T09:58:00.710Z,220
2018-08-03T09:59:10.852Z,220
2018-08-03T10:00:20.941Z,220
2018-08-03T10:01:30.769Z,220
2018-08-03T10:02:40.592Z,220
2018-08-03T10:03:49.891Z,220
2018-08-03T10:04:59.965Z,220
2018-08-03T10:06:10.028Z,220
2018-08-03T10:07:20.291Z,220
2018-08-03T10:08:30.430Z,225
2018-08-03T10:09:40.264Z,225
2018-08-03T10:10:50.089Z,225
2018-08-03T10:12:00.183Z,225
2018-08-03T10:13:10.329Z,225
2018-08-03T10:14:20.412Z,225
2018-08-03T10:15:30.759Z,225
2018-08-03T10:16:40.867Z,225
2018-08-03T10:17:50.407Z,215
2018-08-03T10:19:00.507Z,210
2018-08-03T10:20:10.337Z,215
2018-08-03T10:21:20.404Z,215
2018-08-03T10:22:30.871Z,210
2018-08-03T10:23:40.485Z,205
2018-08-03T10:24:50.330Z,210
2018-08-03T10:26:00.420Z,205
2018-08-03T10:27:10.494Z,215
2018-08-03T10:28:20.362Z,210
2018-08-03T10:29:30.515Z,210
2018-08-03T10:30:40.660Z,225
2018-08-03T10:31:50.832Z,225
2018-08-03T10:33:00.657Z,225
2018-08-03T10:34:10.739Z,225
2018-08-03T10:35:20.684Z,220
2018-08-03T10:36:30.762Z,165
2018-08-03T10:37:40.849Z,230
2018-08-03T10:38:50.691Z,230
2018-08-03T10:40:00.789Z,220
2018-08-03T10:41:10.888Z,220
2018-08-03T10:42:20.760Z,225
2018-08-03T10:43:30.846Z,220
2018-08-03T10:44:40.924Z,215
2018-08-03T10:45:51.025Z,225
2018-08-03T10:47:01.188Z,205
2018-08-03T10:48:11.335Z,195
2018-08-03T10:49:21.432Z,205
2018-08-03T10:50:31.247Z,210
2018-08-03T10:51:41.513Z,210
2018-08-03T10:52:51.600Z,210
2018-08-03T10:54:01.415Z,210
2018-08-03T10:55:11.256Z,210
2018-08-03T10:56:21.369Z,205
2018-08-03T10:57:31.450Z,190
2018-08-03T10:58:41.269Z,210
2018-08-03T10:59:51.356Z,215
2018-08-03T11:01:01.445Z,215
2018-08-03T11:02:11.535Z,215
2018-08-03T11:03:21.366Z,230
2018-08-03T11:04:31.467Z,230
2018-08-03T11:05:41.286Z,235
2018-08-03T11:06:51.393Z,240
2018-08-03T11:08:01.543Z,245
2018-08-03T11:09:11.640Z,255
2018-08-03T11:10:21.728Z,260
2018-08-03T11:11:31.810Z,265
2018-08-03T11:12:41.917Z,275
2018-08-03T11:13:52.770Z,280
2018-08-03T11:15:02.858Z,290
2018-08-03T11:16:12.985Z,295
2018-08-03T11:17:23.127Z,290
2018-08-03T11:18:32.700Z,290
2018-08-03T11:19:42.779Z,290
2018-08-03T11:20:52.862Z,290
2018-08-03T11:22:02.716Z,280
2018-08-03T11:23:12.800Z,270
2018-08-03T11:24:23.456Z,260
2018-08-03T11:25:33.539Z,245
2018-08-03T11:26:43.624Z,190
2018-08-03T11:27:53.709Z,160
2018-08-03T11:29:03.850Z,160
2018-08-03T11:30:13.921Z,165
2018-08-03T11:31:23.745Z,170
2018-08-03T11:32:33.832Z,260
2018-08-03T11:33:43.936Z,260
2018-08-03T11:34:54.021Z,260
2018-08-03T11:36:04.124Z,255
2018-08-03T11:37:14.222Z,255
2018-08-03T11:38:24.314Z,260
2018-08-03T11:39:33.860Z,255
2018-08-03T11:40:44.017Z,250
2018-08-03T11:41:54.181Z,240
2018-08-03T11:43:04.271Z,235
2018-08-03T11:44:14.356Z,230
2018-08-03T11:45:24.187Z,220
2018-08-03T11:46:34.003Z,120
2018-08-03T11:47:43.839Z,120
2018-08-03T11:48:53.933Z,115
2018-08-03T11:50:04.013Z,115
2018-08-03T11:51:14.094Z,125
2018-08-03T11:52:23.977Z,180
2018-08-03T11:53:33.817Z,190
2018-08-03T11:54:43.880Z,200
2018-08-03T11:55:54.710Z,200
2018-08-03T11:57:04.542Z,200
2018-08-03T11:58:14.650Z,205
2018-08-03T11:59:24.728Z,205
2018-08-03T12:00:34.822Z,190
2018-08-03T12:01:44.674Z,190
2018-08-03T12:02:54.513Z,205
2018-08-03T12:04:04.597Z,190
2018-08-03T12:05:14.672Z,180
2018-08-03T12:06:24.884Z,185
2018-08-03T12:07:35.007Z,190
2018-08-03T12:08:45.092Z,205
2018-08-03T12:09:55.169Z,190
2018-08-03T12:11:05.243Z,200
2018-08-03T12:12:15.333Z,200
2018-08-03T12:13:25.435Z,205
2018-08-03T12:14:35.002Z,230
2018-08-03T12:15:44.824Z,225
2018-08-03T12:16:54.961Z,220
2018-08-03T12:18:05.398Z,220
2018-08-03T12:19:15.484Z,210
2018-08-03T12:20:25.317Z,210
2018-08-03T12:21:35.133Z,205
2018-08-03T12:22:45.239Z,210
2018-08-03T12:23:55.632Z,210
2018-08-03T12:25:05.753Z,210
2018-08-03T12:26:15.877Z,210
2018-08-03T12:27:25.969Z,210
2018-08-03T12:28:36.054Z,210
2018-08-03T12:29:45.859Z,210
2018-08-03T12:30:55.946Z,215
2018-08-03T12:32:06.061Z,215
2018-08-03T12:33:16.199Z,215
2018-08-03T12:34:26.282Z,215
2018-08-03T12:35:36.381Z,215
2018-08-03T12:36:46.469Z,215
2018-08-03T12:37:56.583Z,215
2018-08-03T12:39:06.729Z,215
2018-08-03T12:40:16.291Z,220
2018-08-03T12:41:25.858Z,225
2018-08-03T12:42:35.429Z,220
2018-08-03T12:43:45.551Z,220
2018-08-03T12:44:55.374Z,220
2018-08-03T12:46:05.492Z,220
2018-08-03T12:47:15.655Z,225
2018-08-03T12:48:25.484Z,235
2018-08-03T12:49:35.563Z,235
2018-08-03T12:50:45.715Z,235
2018-08-03T12:51:55.540Z,235
2018-08-03T12:53:05.992Z,235
2018-08-03T12:54:16.085Z,235
2018-08-03T12:55:25.902Z,240
2018-08-03T12:56:36.132Z,230
2018-08-03T12:57:45.967Z,235
2018-08-03T12:58:56.080Z,235
2018-08-03T13:00:06.182Z,235
2018-08-03T13:01:16.544Z,235
2018-08-03T13:02:26.713Z,230
2018-08-03T13:03:36.811Z,235
2018-08-03T13:04:46.895Z,235
2018-08-03T13:05:57.016Z,240
2018-08-03T13:07:07.298Z,235
2018-08-03T13:08:18.032Z,235
2018-08-03T13:09:28.309Z,235
2018-08-03T13:10:37.882Z,230
2018-08-03T13:11:48.002Z,240
2018-08-03T13:12:58.106Z,240
2018-08-03T13:14:08.211Z,240
2018-08-03T13:15:18.043Z,245
2018-08-03T13:16:28.119Z,245
2018-08-03T13:17:37.962Z,255
2018-08-03T13:18:48.076Z,260
2018-08-03T13:19:58.230Z,270
2018-08-03T13:21:08.337Z,265
2018-08-03T13:22:18.428Z,255
2018-08-03T13:23:28.280Z,200
2018-08-03T13:24:38.371Z,285
2018-08-03T13:25:48.479Z,285
2018-08-03T13:26:58.060Z,285
2018-08-03T13:28:08.164Z,290
2018-08-03T13:29:18.309Z,285
2018-08-03T13:30:28.155Z,275
2018-08-03T13:31:37.989Z,265
2018-08-03T13:32:48.098Z,225
2018-08-03T13:33:58.240Z,265
2018-08-03T13:35:08.330Z,255
2018-08-03T13:36:18.648Z,235
2018-08-03T13:37:28.814Z,185
2018-08-03T13:38:38.413Z,165
2018-08-03T13:39:48.350Z,160
2018-08-03T13:40:58.448Z,155
2018-08-03T13:42:08.038Z,155
2018-08-03T13:43:17.959Z,180
2018-08-03T13:44:28.070Z,160
2018-08-03T13:45:38.163Z,155
2018-08-03T13:46:48.010Z,155
2018-08-03T13:47:58.140Z,150
2018-08-03T13:49:08.248Z,150
2018-08-03T13:50:18.275Z,150
2018-08-03T13:51:27.775Z,225
2018-08-03T13:52:37.896Z,220
2018-08-03T13:53:48.034Z,220
2018-08-03T13:54:58.130Z,220
2018-08-03T13:56:08.238Z,215
2018-08-03T13:57:18.346Z,215
2018-08-03T13:58:28.435Z,200
2018-08-03T13:59:38.536Z,140
2018-08-03T14:00:48.627Z,135
2018-08-03T14:01:58.736Z,185
2018-08-03T14:03:08.837Z,180
2018-08-03T14:04:18.902Z,125
2018-08-03T14:05:29.086Z,130
2018-08-03T14:06:38.986Z,125
2018-08-03T14:07:49.099Z,120
2018-08-03T14:08:58.966Z,170
2018-08-03T14:10:08.819Z,165
2018-08-03T14:11:18.923Z,190
2018-08-03T14:12:29.010Z,190
2018-08-03T14:13:39.092Z,190
2018-08-03T14:14:49.195Z,145
2018-08-03T14:15:59.057Z,135
2018-08-03T14:17:08.916Z,190
2018-08-03T14:18:19.025Z,195
2018-08-03T14:19:29.113Z,195
2018-08-03T14:20:39.247Z,190
2018-08-03T14:21:49.363Z,195
2018-08-03T14:22:59.464Z,195
2018-08-03T14:24:09.601Z,195
2018-08-03T14:25:19.743Z,135
2018-08-03T14:26:29.839Z,130
2018-08-03T14:27:39.939Z,200
2018-08-03T14:28:50.047Z,200
2018-08-03T14:29:59.942Z,205
2018-08-03T14:31:10.103Z,210
2018-08-03T14:32:20.203Z,205
2018-08-03T14:33:30.301Z,205
2018-08-03T14:34:40.403Z,210
2018-08-03T14:35:50.661Z,205
2018-08-03T14:37:00.786Z,205
2018-08-03T14:38:11.124Z,210
2018-08-03T14:39:21.291Z,210
2018-08-03T14:40:31.384Z,215
2018-08-03T14:41:41.642Z,215
2018-08-03T14:42:51.474Z,215
2018-08-03T14:44:01.579Z,220
2018-08-03T14:45:11.671Z,220
2018-08-03T14:46:21.774Z,220
2018-08-03T14:47:31.854Z,215
2018-08-03T14:48:41.952Z,215
2018-08-03T14:49:52.050Z,220
2018-08-03T14:51:01.910Z,215
2018-08-03T14:52:12.020Z,215
2018-08-03T14:53:21.910Z,210
2018-08-03T14:54:32.010Z,205
2018-08-03T14:55:42.123Z,205
2018-08-03T14:56:52.221Z,205
2018-08-03T14:58:02.036Z,195
2018-08-03T14:59:11.913Z,185
2018-08-03T15:00:22.939Z,180
2018-08-03T15:01:34.026Z,180
2018-08-03T15:02:44.931Z,175
2018-08-03T15:03:56.414Z,175
2018-08-03T15:05:07.000Z,170
2018-08-03T15:06:16.843Z,165
2018-08-03T15:07:26.672Z,155
2018-08-03T15:08:36.750Z,140
2018-08-03T15:09:46.606Z,160
2018-08-03T15:10:56.734Z,160
2018-08-03T15:12:06.588Z,160
2018-08-03T15:13:16.699Z,160
2018-08-03T15:14:26.804Z,160
2018-08-03T15:15:36.877Z,160
2018-08-03T15:16:46.705Z,160
2018-08-03T15:17:56.810Z,160
2018-08-03T15:19:07.016Z,160
2018-08-03T15:20:17.149Z,165
2018-08-03T15:21:27.260Z,155
2018-08-03T15:22:37.467Z,155
2018-08-03T15:23:47.551Z,155
2018-08-03T15:24:57.370Z,150
2018-08-03T15:26:07.587Z,155
2018-08-03T15:27:17.733Z,155
2018-08-03T15:28:27.893Z,155
2018-08-03T15:29:38.042Z,155
2018-08-03T15:30:48.162Z,155
2018-08-03T15:31:58.273Z,155
2018-08-03T15:33:08.392Z,155
2018-08-03T15:34:17.971Z,110
2018-08-03T15:35:27.911Z,160
2018-08-03T15:36:38.133Z,165
2018-08-03T15:37:47.990Z,155
2018-08-03T15:38:57.828Z,120
2018-08-03T15:40:07.953Z,115
2018-08-03T15:41:18.105Z,110
2018-08-03T15:42:27.699Z,120
2018-08-03T15:43:37.820Z,110
2018-08-03T15:44:48.077Z,140
2018-08-03T15:45:58.247Z,150
2018-08-03T15:47:07.820Z,150
2018-08-03T15:48:17.404Z,150
2018-08-03T15:49:27.530Z,150
2018-08-03T15:50:37.631Z,150
2018-08-03T15:51:47.727Z,150
2018-08-03T15:52:57.677Z,150
2018-08-03T15:54:07.781Z,150
2018-08-03T15:55:17.629Z,155
2018-08-03T15:56:27.734Z,155
2018-08-03T15:57:37.858Z,155
2018-08-03T15:58:48.642Z,155
2018-08-03T15:59:58.835Z,155
2018-08-03T16:01:08.955Z,155
2018-08-03T16:02:19.061Z,155
2018-08-03T16:03:28.714Z,155
2018-08-03T16:04:39.154Z,155
2018-08-03T16:05:49.002Z,150
2018-08-03T16:06:59.225Z,150
2018-08-03T16:08:09.374Z,150
2018-08-03T16:09:19.553Z,145
2018-08-03T16:10:29.641Z,145
2018-08-03T16:11:39.741Z,145
2018-08-03T16:12:50.067Z,140
2018-08-03T16:14:00.248Z,140
2018-08-03T16:15:10.443Z,135
2018-08-03T16:16:20.550Z,135
2018-08-03T16:17:30.638Z,135
2018-08-03T16:18:40.463Z,135
2018-08-03T16:19:50.568Z,130
2018-08-03T16:21:00.413Z,130
2018-08-03T16:22:10.259Z,130
2018-08-03T16:23:20.104Z,125
2018-08-03T16:24:29.956Z,120
2018-08-03T16:25:40.364Z,120
2018-08-03T16:26:50.508Z,120
2018-08-03T16:28:00.848Z,115
2018-08-03T16:29:10.946Z,115
2018-08-03T16:30:21.067Z,115
2018-08-03T16:31:31.162Z,110
2018-08-03T16:32:41.548Z,110
2018-08-03T16:33:51.631Z,110
2018-08-03T16:35:01.726Z,115
2018-08-03T16:36:11.539Z,115
2018-08-03T16:37:21.647Z,115
2018-08-03T16:38:31.290Z,115
2018-08-03T16:39:41.409Z,115
2018-08-03T16:40:51.520Z,115
2018-08-03T16:42:01.355Z,115
2018-08-03T16:43:11.475Z,115
2018-08-03T16:44:21.358Z,115
2018-08-03T16:45:31.210Z,110
2018-08-03T16:46:41.385Z,110
2018-08-03T16:47:51.484Z,105
2018-08-03T16:49:01.588Z,105
2018-08-03T16:50:11.675Z,100
2018-08-03T16:51:21.776Z,100